Pana, Illinois
Current Conditions -  °F | °C
As of 11:35 PM on Thursday 27 Nov 2014 (Local Time) from KTAZ Reporting Station
Broken Clouds Broken Clouds  
Wind Chill: 18°   Ceiling: 8000
Heat Index: 18°   Visibility: 10mi
Dew Point:   Wind: 3mph
Humidity: 63%   Direction: 30°NNE
Pressure: 30.43"   Gusts: NA
Location:  39.39°N, 89.08°W
Report Text: KTAZ 280535Z AUTO 03003KT 10SM BKN080 BKN110 M08/M14 A3043 RMK AO2
Loading
Personal Weather Stations






























Interactive Weather Map New forecast layout! Learn more

10-Day Weather Forecast

Advertisements
Track Severe Weather on mobile